• Join FlightAware (Why Join?)
  • Login
  • US Flag 
11:17PM EDT


 

Airport Tracker/Info


-or-


 

Live Flight TrackerFlight Track Log ✈ FFT361 ✈ 24-Jun-2013 ✈ KTPA - KDEN

Flight Track Log - Related Links

Times and Time Zones

All times are in EDT time to prevent confusion due to time zone crossing. See the FFT361 flight status page for this flight to view local times or setup timezone preferences in your user account.

Time Position Orientation Groundspeed Altitude Reporting Facility
EDT Latitude Longitude Course Direction KTS MPH feet Rate Location/Type
08:48AM 27.9500 -82.5500 204° Southwest 166 191 800  Level Tampa TRACON
08:49AM 27.8833 -82.5833 204° Southwest 230 265 3,000 2,040 Climbing Tampa TRACON
08:50AM 27.8833 -82.6500 270° West 281 323 5,700 2,400 Climbing Tampa TRACON
08:52AM 28.0497 -82.6881 349° North 298 343 10,700 2,220 Climbing Jacksonville Center
08:53AM 28.1436 -82.7089 349° North 320 368 12,800 2,280 Climbing Jacksonville Center
08:54AM 28.2417 -82.7347 347° North 341 392 15,300 2,280 Climbing Jacksonville Center
08:55AM 28.3419 -82.7558 350° North 355 409 17,400 1,800 Climbing Jacksonville Center
08:56AM 28.4442 -82.7839 346° North 365 420 19,000 1,680 Climbing Jacksonville Center
08:57AM 28.5528 -82.8100 348° North 376 433 20,800 1,740 Climbing Jacksonville Center
08:58AM 28.6508 -82.8667 333° Northwest 386 444 22,500 1,560 Climbing Jacksonville Center
08:59AM 28.7592 -82.9400 329° Northwest 386 444 24,000 1,440 Climbing Jacksonville Center
09:00AM 28.8594 -83.0086 329° Northwest 405 466 25,400 1,740 Climbing Jacksonville Center
09:01AM 28.9594 -83.0778 329° Northwest 416 479 27,500 2,460 Climbing Jacksonville Center
09:02AM 29.0533 -83.1419 329° Northwest 416 479 30,400 1,920 Climbing Jacksonville Center
09:03AM 29.1431 -83.2064 328° Northwest 396 456 31,400 720 Climbing Jacksonville Center
09:04AM 29.2408 -83.2711 330° Northwest 396 456 31,900 480 Climbing Jacksonville Center
09:05AM 29.3492 -83.3189 339° North 390 449 32,400 480 Climbing Jacksonville Center
09:06AM 29.4367 -83.4125 317° Northwest 422 486 32,900 600 Climbing Jacksonville Center
09:07AM 29.5031 -83.5153 307° West 422 486 33,700 720 Climbing Jacksonville Center
09:08AM 29.5733 -83.6328 305° West 440 506 34,400 900 Climbing Jacksonville Center
09:09AM 29.6456 -83.7528 305° West 451 519 35,600 780 Climbing Jacksonville Center
09:10AM 29.7136 -83.8683 304° West 451 519 36,000 180 Climbing Jacksonville Center
09:11AM 29.7839 -83.9814 306° West 444 511 36,000  Level Jacksonville Center
09:12AM 29.8558 -84.0972 306° West 444 511 36,000  Level Jacksonville Center
09:13AM 29.9297 -84.2228 304° West 444 511 36,000 -60 Level Jacksonville Center
09:14AM 29.9994 -84.3389 305° West 444 511 35,900  Descending Jacksonville Center
09:15AM 30.0692 -84.4528 305° West 439 505 36,000  Climbing Jacksonville Center
09:16AM 30.1386 -84.5692 305° West 444 511 36,000  Level Jacksonville Center
09:17AM 30.2081 -84.6833 305° West 444 511 36,000  Level Jacksonville Center
09:18AM 30.2772 -84.8025 304° West 444 511 36,000  Level Jacksonville Center
09:19AM 30.3444 -84.9192 304° West 444 511 36,000  Level Jacksonville Center
09:20AM 30.4133 -85.0339 305° West 444 511 36,000  Level Jacksonville Center
09:21AM 30.4825 -85.1511 304° West 444 511 36,000  Level Jacksonville Center
09:22AM 30.5492 -85.2686 303° West 444 511 36,000  Level Jacksonville Center
09:23AM 30.6181 -85.3836 305° West 444 511 36,000  Level Jacksonville Center
09:24AM 30.6806 -85.4892 305° West 444 511 36,000 -60 Level Jacksonville Center
09:25AM 30.7472 -85.6022 304° West 444 511 35,900 -60 Descending Jacksonville Center
09:26AM 30.8133 -85.7200 303° West 444 511 35,900  Level Jacksonville Center
09:27AM 30.8817 -85.8383 304° West 444 511 36,000  Climbing Jacksonville Center
09:28AM 30.9500 -85.9544 304° West 444 511 36,000  Level Jacksonville Center
09:29AM 31.0161 -86.0681 304° West 444 511 36,000  Level Jacksonville Center
09:30AM 31.0800 -86.1867 302° West 444 511 36,000  Level Jacksonville Center
09:31AM 31.1436 -86.3028 303° West 439 505 36,000  Level Jacksonville Center
09:32AM 31.2114 -86.4194 304° West 434 499 36,000  Level Jacksonville Center
09:33AM 31.2769 -86.5336 304° West 429 494 36,000  Level Jacksonville Center
09:36AM 31.4358 -86.8108 304° West 429 494 36,000 180 Level Atlanta Center
09:37AM 31.5000 -86.9272 303° West 429 494 36,600 480 Climbing Atlanta Center
09:38AM 31.5644 -87.0317 306° West 429 494 37,000 180 Climbing Atlanta Center
09:39AM 31.6283 -87.1461 303° West 429 494 37,000  Level Atlanta Center
09:40AM 31.6939 -87.2775 300° West 422 486 37,000  Level Atlanta Center
09:41AM 31.7578 -87.3825 306° West 427 491 37,000  Level Atlanta Center
09:42AM 31.8253 -87.5022 304° West 433 498 37,000  Level Atlanta Center
09:43AM 31.8908 -87.6222 303° West 433 498 37,000  Level Atlanta Center
09:44AM 31.9561 -87.7425 303° West 433 498 37,000  Level Atlanta Center
09:48AM 32.2172 -88.2261 303° West 452 520 37,000  Level Memphis Center
09:49AM 32.2819 -88.3447 303° West 447 514 37,000  Level Memphis Center
09:50AM 32.3444 -88.4639 302° West 442 509 37,000  Level Memphis Center
09:51AM 32.4150 -88.5881 304° West 430 495 37,000  Level Memphis Center
09:52AM 32.4772 -88.7050 302° West 417 480 37,000  Level Memphis Center
09:53AM 32.5350 -88.8122 303° West 417 480 37,000  Level Memphis Center
09:54AM 32.5989 -88.9319 302° West 423 487 37,000  Level Memphis Center
09:55AM 32.6628 -89.0494 303° West 428 493 37,000 -180 Level Memphis Center
09:56AM 32.7247 -89.1694 302° West 434 499 36,700 -420 Descending Memphis Center
09:57AM 32.7883 -89.2897 302° West 434 499 36,200 -360 Descending Memphis Center
09:58AM 32.8497 -89.4053 302° West 429 494 36,000 -120 Descending Memphis Center
09:59AM 32.9114 -89.5233 302° West 422 486 36,000  Level Memphis Center
10:00AM 32.9747 -89.6392 303° West 422 486 36,000  Level Memphis Center
10:01AM 33.0378 -89.7625 301° West 423 487 36,000  Level Memphis Center
10:02AM 33.1072 -89.8958 302° West 432 497 36,000  Level Memphis Center
10:03AM 33.1661 -90.0172 300° West 432 497 36,000  Level Memphis Center
10:04AM 33.2269 -90.1336 302° West 427 491 36,000  Level Memphis Center
10:05AM 33.2897 -90.2553 302° West 427 491 36,000  Level Memphis Center
10:07AM 33.4108 -90.4942 301° West 423 487 36,000  Level Memphis Center
10:08AM 33.4711 -90.6136 301° West 423 487 36,000  Level Memphis Center
10:09AM 33.5314 -90.7311 302° West 423 487 36,000  Level Memphis Center
10:10AM 33.5894 -90.8508 300° West 423 487 36,000 120 Level Memphis Center
10:11AM 33.6517 -90.9711 302° West 423 487 36,300 480 Climbing Memphis Center
10:12AM 33.7136 -91.0889 302° West 423 487 37,000 660 Climbing Memphis Center
10:13AM 33.7692 -91.2042 300° West 430 495 37,700 480 Climbing Memphis Center
10:14AM 33.8350 -91.3400 300° West 425 489 38,000 120 Climbing Memphis Center
10:15AM 33.8967 -91.4608 302° West 425 489 38,000  Level Memphis Center
10:16AM 33.9581 -91.5867 300° West 432 497 38,000  Level Memphis Center
10:17AM 34.0133 -91.6953 302° West 426 490 38,000  Level Memphis Center
10:18AM 34.0786 -91.8192 302° West 426 490 38,000  Level Memphis Center
10:19AM 34.1397 -91.9483 300° West 426 490 38,000  Level Memphis Center
10:20AM 34.1986 -92.0750 299° West 426 490 38,000  Level Memphis Center
10:21AM 34.2572 -92.1967 300° West 426 490 38,000  Level Memphis Center
10:22AM 34.3181 -92.3211 301° West 426 490 38,000  Level Memphis Center
10:23AM 34.3808 -92.4458 301° West 426 490 38,000  Level Memphis Center
10:24AM 34.4392 -92.5708 300° West 426 490 38,000  Level Memphis Center
10:25AM 34.4994 -92.6958 300° West 426 490 38,000  Level Memphis Center
10:26AM 34.5575 -92.8183 300° West 426 490 38,000  Level Memphis Center
10:27AM 34.6175 -92.9439 300° West 426 490 38,000  Level Memphis Center
10:28AM 34.6756 -93.0642 300° West 426 490 38,000  Level Memphis Center
10:29AM 34.7353 -93.1925 300° West 426 490 38,000  Level Memphis Center
10:30AM 34.7950 -93.3183 300° West 426 490 38,000  Level Memphis Center
10:31AM 34.8525 -93.4419 300° West 426 490 38,100  Climbing Memphis Center
10:32AM 34.9119 -93.5708 299° West 426 490 38,000 -60 Descending Memphis Center
10:33AM 34.9711 -93.6944 300° West 426 490 38,000  Level Memphis Center
10:34AM 35.0306 -93.8136 301° West 426 490 38,000  Level Memphis Center
10:35AM 35.0856 -93.9350 299° West 421 484 38,000  Level Memphis Center
10:36AM 35.1403 -94.0567 299° West 421 484 38,000  Level Memphis Center
10:37AM 35.1950 -94.1786 299° West 421 484 38,000  Level Memphis Center
10:38AM 35.2517 -94.2981 300° West 416 479 38,000  Level Memphis Center
10:39AM 35.3042 -94.4178 298° West 416 479 38,000  Level Memphis Center
10:40AM 35.3608 -94.5375 300° West 409 471 38,000  Level Memphis Center
10:42AM 35.4703 -94.7797 299° West 409 471 38,000  Level Kansas City Center
10:43AM 35.5258 -94.9039 299° West 411 473 38,000  Level Kansas City Center
10:44AM 35.5944 -95.0525 300° West 413 475 38,000  Level Kansas City Center
10:45AM 35.6508 -95.1783 299° West 417 480 38,100  Climbing Kansas City Center
10:46AM 35.7064 -95.3031 299° West 416 479 38,000 -60 Descending Kansas City Center
10:47AM 35.7619 -95.4292 299° West 416 479 38,000  Level Kansas City Center
10:48AM 35.8178 -95.5550 299° West 416 479 38,000  Level Kansas City Center
10:49AM 35.8733 -95.6811 299° West 416 479 38,000  Level Kansas City Center
10:50AM 35.9281 -95.8078 298° West 416 479 38,000  Level Kansas City Center
10:51AM 35.9839 -95.9333 299° West 415 478 38,000  Level Kansas City Center
10:52AM 36.0489 -96.0817 298° West 410 472 38,000  Level Kansas City Center
10:53AM 36.1022 -96.2056 298° West 409 471 38,000  Level Kansas City Center
10:54AM 36.1294 -96.3394 284° West 407 468 38,000  Level Kansas City Center
10:55AM 36.1392 -96.4753 275° West 399 459 38,000  Level Kansas City Center
10:56AM 36.1486 -96.6092 275° West 395 455 38,000  Level Kansas City Center
10:57AM 36.1589 -96.7431 275° West 392 451 38,000  Level Kansas City Center
10:58AM 36.1717 -96.9022 276° West 391 450 38,000  Level Kansas City Center
10:59AM 36.1800 -97.0353 274° West 391 450 38,000  Level Kansas City Center
11:00AM 36.1897 -97.1689 275° West 391 450 38,000  Level Kansas City Center
11:01AM 36.1992 -97.3042 275° West 395 455 38,000  Level Kansas City Center
11:02AM 36.2078 -97.4397 275° West 397 457 38,000  Level Kansas City Center
11:03AM 36.2172 -97.5747 275° West 397 457 38,000  Level Kansas City Center
11:04AM 36.2272 -97.7364 274° West 396 456 38,000  Level Kansas City Center
11:06AM 36.2347 -97.8686 274° West 394 453 38,000  Level Kansas City Center
11:07AM 36.2442 -98.0017 275° West 391 450 38,000  Level Kansas City Center
11:08AM 36.2528 -98.1522 274° West 391 450 38,000  Level Kansas City Center
11:09AM 36.2611 -98.2850 274° West 387 445 38,000  Level Kansas City Center
11:10AM 36.2686 -98.4164 274° West 385 443 38,000  Level Kansas City Center
11:11AM 36.2756 -98.5458 274° West 380 437 38,000  Level Kansas City Center
11:12AM 36.2833 -98.6758 274° West 379 436 38,000  Level Kansas City Center
11:13AM 36.2908 -98.8067 274° West 380 437 38,000  Level Kansas City Center
11:14AM 36.3278 -98.9581 287° West 385 443 38,000  Level Kansas City Center
11:15AM 36.3731 -99.0789 295° West 389 448 38,000  Level Kansas City Center
11:16AM 36.4172 -99.2017 294° West 390 449 38,000  Level Kansas City Center
11:17AM 36.4617 -99.3253 294° West 393 452 38,000  Level Kansas City Center
11:18AM 36.5067 -99.4481 295° West 391 450 38,000  Level Kansas City Center
11:19AM 36.5508 -99.5714 294° West 392 451 38,000  Level Kansas City Center
11:20AM 36.6042 -99.7186 294° West 390 449 38,000  Level Kansas City Center
11:21AM 36.6483 -99.8425 294° West 391 450 38,000  Level Kansas City Center
11:22AM 36.6928 -99.9642 295° West 388 447 38,000  Level Kansas City Center
11:23AM 36.7369 -100.0872 294° West 388 447 38,000  Level Kansas City Center
11:24AM 36.7803 -100.2139 293° West 387 445 38,000  Level Kansas City Center
11:25AM 36.8297 -100.3503 294° West 386 444 38,000  Level Kansas City Center
11:26AM 36.8706 -100.4694 293° West 388 447 38,000  Level Kansas City Center
11:27AM 36.9183 -100.6075 293° West 388 447 38,100  Climbing Kansas City Center
11:28AM 36.9594 -100.7258 294° West 387 445 38,000 -60 Descending Kansas City Center
11:29AM 37.0069 -100.8625 294° West 384 442 38,000  Level Kansas City Center
11:30AM 37.0531 -100.9783 297° West 387 445 38,000  Level Kansas City Center
11:31AM 37.1203 -101.0806 310° West 393 452 38,000  Level Kansas City Center
11:32AM 37.2008 -101.1983 311° West 396 456 38,000  Level Kansas City Center
11:33AM 37.2694 -101.3006 310° West 398 458 38,000  Level Kansas City Center
11:34AM 37.3511 -101.4194 311° West 399 459 38,000  Level Kansas City Center
11:36AM 37.4211 -101.5228 310° West 402 463 38,000  Level Kansas City Center
11:37AM 37.5025 -101.6428 311° West 402 463 38,000  Level Kansas City Center
11:38AM 37.5725 -101.7464 310° West 403 464 38,000  Level Kansas City Center
11:39AM 37.6517 -101.8653 310° West 399 459 38,000  Level Kansas City Center
11:40AM 37.7214 -101.9692 310° West 402 463 38,000  Level Kansas City Center
11:41AM 37.7903 -102.0728 310° West 402 463 38,000  Level Kansas City Center
11:42AM 37.8736 -102.1922 311° West 404 465 38,000  Level Kansas City Center
11:43AM 37.9481 -102.2928 313° West 407 468 38,100 -60 Climbing Kansas City Center
11:44AM 38.0358 -102.4092 314° West 409 471 37,900 -300 Descending Kansas City Center
11:44AM 38.0839 -102.4775 312° West 406 467 37,600 -420 Descending Denver Center
11:45AM 38.1586 -102.5803 313° West 412 474 37,200 -600 Descending Denver Center
11:46AM 38.2483 -102.6994 314° West 419 482 36,400 -600 Descending Denver Center
11:48AM 38.3228 -102.8042 312° West 418 481 36,000 -240 Descending Denver Center
11:49AM 38.4131 -102.9269 313° West 424 488 36,000  Level Denver Center
11:50AM 38.4889 -103.0347 312° West 426 490 36,000 -180 Level Denver Center
11:51AM 38.5750 -103.1544 313° West 427 491 35,700 -420 Descending Denver Center
11:52AM 38.6544 -103.2656 312° West 426 490 35,200 -780 Descending Denver Center
11:53AM 38.7358 -103.3764 313° West 427 491 34,100 -1,140 Descending Denver Center
11:54AM 38.8197 -103.4972 312° West 434 499 32,700 -2,040 Descending Denver Center
11:55AM 38.9283 -103.6508 312° West 431 496 29,600 -2,640 Descending Denver Center
11:56AM 39.0064 -103.7625 312° West 422 486 27,300 -2,280 Descending Denver Center
11:57AM 39.0839 -103.8708 313° West 415 478 25,000 -2,220 Descending Denver Center
11:58AM 39.1569 -103.9769 312° West 400 460 22,800 -1,740 Descending Denver Center
11:59AM 39.2292 -104.0800 312° West 391 450 21,500 -1,440 Descending Denver Center
12:00PM 39.3339 -104.1847 322° Northwest 404 465 19,900 -1,740 Descending Denver Center
12:01PM 39.4233 -104.2622 326° Northwest 390 449 18,000 -2,040 Descending Denver Center
12:02PM 39.5144 -104.3319 329° Northwest 381 438 15,800 -1,680 Descending Denver Center
12:03PM 39.6086 -104.4117 327° Northwest 375 432 14,600 -1,080 Descending Denver Center
12:04PM 39.6981 -104.4833 328° Northwest 380 437 13,600 -960 Descending Denver Center
12:05PM 39.8003 -104.5225 344° North 354 407 12,600 -1,080 Descending Denver Center
12:06PM 39.8878 -104.5219 360° North 322 371 11,400 -1,080 Descending Denver Center
12:07PM 39.9728 -104.5211 360° North 283 326 10,400 -1,260 Descending Denver Center
12:08PM 40.0239 -104.5633 328° Northwest 239 275 8,800 -1,500 Descending Denver Center
12:09PM 40.0256 -104.6517 271° West 226 260 7,300 -1,020 Descending Denver Center
12:10PM 39.9781 -104.6856 209° Southwest 198 228 6,800 -660 Descending Denver Center
12:12PM 39.9275 -104.6867 181° South 171 197 6,000 -780 Descending Denver Center
12:13PM 39.8919 -104.6869 180° South 133 153 5,300 -720 Descending Denver Center